Time;durP1;ratioP1;P1;durP2;ratioP2;P2;SDS_P1;SDS_P2;PMS_P1;PMS_P2;Temp;Humidity;BMP_temperature;BMP_pressure;BME280_temperature;BME280_humidity;BME280_pressure;Samples;Min_cycle;Max_cycle;Signal;HPM_P1;HPM_P2
2023/07/20 00:01:22;;;;;;;11.68;5.25;;;32.30;99.90;;;;;;5026043;23;20466;-58
2023/07/20 00:03:54;;;;;;;10.23;4.88;;;32.30;99.90;;;;;;5022954;28;20461;-58
2023/07/20 00:06:23;;;;;;;12.43;6.30;;;32.30;99.90;;;;;;5018826;28;20092;-57
2023/07/20 00:08:49;;;;;;;14.07;6.00;;;32.20;99.90;;;;;;5021392;28;20101;-58
2023/07/20 00:11:15;;;;;;;12.32;6.57;;;32.20;99.90;;;;;;5017060;28;20164;-58
2023/07/20 00:13:41;;;;;;;12.50;6.88;;;32.20;99.90;;;;;;5019884;28;20022;-58
2023/07/20 00:16:07;;;;;;;15.32;7.00;;;32.30;99.90;;;;;;5014966;28;20045;-57
2023/07/20 00:18:33;;;;;;;15.80;7.53;;;32.30;99.90;;;;;;5018510;28;20053;-57
2023/07/20 00:21:01;;;;;;;15.18;8.15;;;32.30;99.90;;;;;;5013502;28;20046;-57
2023/07/20 00:23:27;;;;;;;14.75;8.63;;;32.30;99.90;;;;;;5017437;28;20033;-57
2023/07/20 00:25:54;;;;;;;12.82;8.68;;;32.30;99.90;;;;;;5016194;28;20022;-58
2023/07/20 00:28:20;;;;;;;15.98;9.43;;;32.30;99.90;;;;;;5016322;28;20026;-58
2023/07/20 00:30:45;;;;;;;13.77;8.35;;;32.30;99.90;;;;;;5001333;28;20017;-57
2023/07/20 00:33:12;;;;;;;15.10;9.30;;;32.30;99.90;;;;;;5014267;28;20359;-57
2023/07/20 00:35:38;;;;;;;16.70;9.38;;;32.30;99.90;;;;;;5018932;28;20025;-57
2023/07/20 00:38:04;;;;;;;13.52;8.60;;;32.30;99.90;;;;;;5025072;28;20034;-57
2023/07/20 00:40:37;;;;;;;14.88;8.75;;;32.30;99.90;;;;;;5014036;28;20107;-57
2023/07/20 00:43:03;;;;;;;14.38;8.55;;;32.30;99.90;;;;;;5007446;28;20108;-57
2023/07/20 00:45:30;;;;;;;16.10;9.45;;;32.30;99.90;;;;;;5021126;28;20014;-57
2023/07/20 00:47:56;;;;;;;;;;;32.30;99.90;;;;;;5015279;28;20021;-57
2023/07/20 00:50:22;;;;;;;13.80;10.00;;;32.30;99.90;;;;;;5023841;28;19905;-57
2023/07/20 00:52:49;;;;;;;16.60;10.23;;;32.30;99.90;;;;;;5019753;28;20445;-57
2023/07/20 00:55:15;;;;;;;;;;;32.30;99.90;;;;;;5032944;28;20104;-57
2023/07/20 00:57:41;;;;;;;15.23;8.80;;;32.30;99.90;;;;;;5028768;28;19996;-57
2023/07/20 01:00:08;;;;;;;17.43;10.27;;;32.30;99.90;;;;;;5043683;22;20046;-60
2023/07/20 01:02:34;;;;;;;13.40;10.10;;;32.30;99.90;;;;;;5022313;28;20138;-60
2023/07/20 01:05:00;;;;;;;16.95;9.85;;;32.30;99.90;;;;;;5027289;28;20167;-59
2023/07/20 01:07:38;;;;;;;15.87;10.53;;;32.40;99.90;;;;;;5026749;28;20043;-58
2023/07/20 01:10:19;;;;;;;19.80;9.82;;;32.30;99.90;;;;;;5034759;28;20060;-58
2023/07/20 01:12:54;;;;;;;15.05;9.57;;;32.30;99.90;;;;;;5021117;28;20052;-57
2023/07/20 01:15:21;;;;;;;15.48;9.82;;;32.30;99.90;;;;;;5012331;28;20022;-61
2023/07/20 01:17:47;;;;;;;17.83;9.30;;;32.30;99.90;;;;;;5019950;28;20030;-61
2023/07/20 01:20:20;;;;;;;16.75;9.90;;;32.30;99.90;;;;;;5022606;28;20070;-62
2023/07/20 01:23:24;;;;;;;18.75;10.05;;;32.30;99.90;;;;;;5017177;28;20022;-61
2023/07/20 01:26:04;;;;;;;18.85;11.52;;;32.30;99.90;;;;;;5014768;28;20089;-62
2023/07/20 01:28:53;;;;;;;20.35;12.60;;;32.30;99.90;;;;;;5018948;28;20382;-62
2023/07/20 01:31:30;;;;;;;17.77;10.10;;;32.30;99.90;;;;;;5007980;28;20105;-63
2023/07/20 01:33:58;;;;;;;16.88;10.40;;;32.30;99.90;;;;;;5017795;28;20045;-61
2023/07/20 01:36:26;;;;;;;17.05;11.18;;;32.40;99.90;;;;;;5014082;28;20470;-59
2023/07/20 01:38:53;;;;;;;17.58;11.13;;;32.30;99.90;;;;;;5013361;28;20117;-60
2023/07/20 01:41:19;;;;;;;20.67;11.73;;;32.40;99.90;;;;;;5012669;28;20053;-64
2023/07/20 01:43:45;;;;;;;18.15;11.88;;;32.40;99.90;;;;;;5024319;28;20025;-63
2023/07/20 01:46:11;;;;;;;18.00;11.17;;;32.30;99.90;;;;;;5015852;28;20028;-62
2023/07/20 01:48:37;;;;;;;19.27;12.30;;;32.40;99.90;;;;;;5013060;28;20302;-63
2023/07/20 01:51:02;;;;;;;16.00;11.52;;;32.30;99.90;;;;;;5026630;28;20030;-63
2023/07/20 01:53:28;;;;;;;19.08;10.25;;;32.40;99.90;;;;;;5020481;28;20060;-63
2023/07/20 01:55:54;;;;;;;17.35;10.27;;;32.40;99.90;;;;;;5029739;28;20036;-63
2023/07/20 01:58:20;;;;;;;16.00;11.50;;;32.40;99.90;;;;;;5006613;28;20103;-63
2023/07/20 02:00:46;;;;;;;19.45;12.40;;;32.40;99.90;;;;;;5030311;23;20042;-57
2023/07/20 02:03:12;;;;;;;20.58;12.48;;;32.40;99.90;;;;;;5019649;28;20425;-57
2023/07/20 02:05:38;;;;;;;16.75;12.65;;;32.40;99.90;;;;;;5007725;28;20108;-57
2023/07/20 02:08:04;;;;;;;17.73;10.63;;;32.30;99.90;;;;;;5003674;28;20025;-58
2023/07/20 02:10:30;;;;;;;18.90;11.77;;;32.40;99.90;;;;;;5008133;28;20033;-57
2023/07/20 02:12:56;;;;;;;18.65;12.27;;;32.40;99.90;;;;;;5000826;28;20072;-57
2023/07/20 02:15:22;;;;;;;16.45;10.85;;;32.40;99.90;;;;;;5005189;28;20083;-57
2023/07/20 02:17:48;;;;;;;15.97;10.70;;;32.30;99.90;;;;;;5000253;28;20027;-57
2023/07/20 02:20:14;;;;;;;17.52;11.40;;;32.30;99.90;;;;;;5002361;28;20382;-57
2023/07/20 02:22:40;;;;;;;18.73;13.32;;;32.40;99.90;;;;;;4998212;28;20109;-57
2023/07/20 02:25:07;;;;;;;17.00;12.33;;;32.40;99.90;;;;;;4998996;28;20428;-58
2023/07/20 02:27:36;;;;;;;16.50;11.82;;;32.30;99.90;;;;;;4998492;28;20041;-57
2023/07/20 02:30:03;;;;;;;15.63;11.70;;;32.30;99.90;;;;;;4996951;28;20541;-57
2023/07/20 02:32:31;;;;;;;18.55;12.13;;;32.40;99.90;;;;;;4996928;28;20081;-57
2023/07/20 02:34:58;;;;;;;20.95;11.75;;;32.40;99.90;;;;;;4994940;28;20053;-57
2023/07/20 02:37:24;;;;;;;18.25;12.25;;;32.40;99.90;;;;;;4994857;28;20042;-57
2023/07/20 02:39:50;;;;;;;16.20;11.52;;;32.40;99.90;;;;;;4980030;28;20383;-57
2023/07/20 02:42:15;;;;;;;17.02;10.73;;;32.40;99.90;;;;;;4991675;28;20105;-57
2023/07/20 02:44:41;;;;;;;17.50;11.80;;;32.40;99.90;;;;;;5004302;28;20019;-57
2023/07/20 02:47:07;;;;;;;16.77;11.68;;;32.40;99.90;;;;;;4992864;28;20022;-57
2023/07/20 02:49:33;;;;;;;17.98;11.10;;;32.40;99.90;;;;;;4992427;28;20431;-57
2023/07/20 02:51:59;;;;;;;16.60;10.88;;;32.40;99.90;;;;;;4991988;28;20026;-57
2023/07/20 02:54:24;;;;;;;21.20;12.75;;;32.40;99.90;;;;;;4993088;28;20624;-57
2023/07/20 02:56:50;;;;;;;17.38;12.18;;;32.30;99.90;;;;;;5008675;28;20486;-57
2023/07/20 02:59:16;;;;;;;20.63;13.02;;;32.30;99.90;;;;;;5007269;28;20049;-57
2023/07/20 03:01:44;;;;;;;19.58;12.55;;;32.40;99.90;;;;;;5028861;23;20045;-63
2023/07/20 03:04:10;;;;;;;18.15;13.02;;;32.40;99.90;;;;;;5026495;28;20048;-64
2023/07/20 03:06:36;;;;;;;18.50;12.18;;;32.30;99.90;;;;;;5024937;28;20473;-64
2023/07/20 03:09:06;;;;;;;20.80;13.27;;;32.30;99.90;;;;;;5026570;28;20032;-63
2023/07/20 03:11:33;;;;;;;19.58;13.20;;;32.30;99.90;;;;;;5022807;28;20030;-63
2023/07/20 03:13:59;;;;;;;22.60;13.63;;;32.40;99.90;;;;;;5024065;28;20022;-63
2023/07/20 03:16:26;;;;;;;19.45;13.50;;;32.30;99.90;;;;;;5034777;28;20069;-62
2023/07/20 03:18:52;;;;;;;16.25;12.98;;;32.40;99.90;;;;;;5024684;28;20014;-60
2023/07/20 03:21:17;;;;;;;17.83;12.93;;;32.40;99.90;;;;;;5017217;28;20342;-60
2023/07/20 03:23:43;;;;;;;19.90;13.70;;;32.40;99.90;;;;;;5021525;28;20430;-61
2023/07/20 03:26:09;;;;;;;17.50;12.80;;;32.40;99.90;;;;;;5017052;28;20088;-62
2023/07/20 03:28:38;;;;;;;19.83;14.65;;;32.30;99.90;;;;;;5018869;28;20022;-61
2023/07/20 03:31:05;;;;;;;17.88;12.82;;;32.30;99.90;;;;;;5014734;28;20104;-62
2023/07/20 03:33:31;;;;;;;20.30;13.63;;;32.40;99.90;;;;;;5015950;28;20056;-61
2023/07/20 03:35:58;;;;;;;17.60;13.30;;;32.30;99.90;;;;;;5012768;28;20251;-62
2023/07/20 03:38:24;;;;;;;19.75;12.20;;;32.30;99.90;;;;;;5011911;28;20037;-62
2023/07/20 03:40:54;;;;;;;16.77;11.70;;;32.40;99.90;;;;;;5010813;28;20081;-62
2023/07/20 03:43:24;;;;;;;18.27;12.05;;;32.40;99.90;;;;;;5019253;28;20458;-63
2023/07/20 03:45:51;;;;;;;16.85;11.82;;;32.40;99.90;;;;;;5016585;28;20025;-64
2023/07/20 03:48:19;;;;;;;18.67;12.32;;;32.40;99.90;;;;;;4999030;28;20029;-64
2023/07/20 03:50:46;;;;;;;18.27;11.98;;;32.40;99.90;;;;;;5024126;28;20381;-63
2023/07/20 03:53:12;;;;;;;19.13;12.45;;;32.40;99.90;;;;;;5017480;28;20026;-63
2023/07/20 03:55:40;;;;;;;17.92;12.13;;;32.40;99.90;;;;;;5029752;28;20481;-63
2023/07/20 03:58:06;;;;;;;19.17;12.45;;;32.30;99.90;;;;;;5030249;28;20041;-62
2023/07/20 04:00:32;;;;;;;19.37;12.57;;;32.40;99.90;;;;;;5032882;28;20389;-62
2023/07/20 04:02:59;;;;;;;15.27;11.63;;;32.40;99.90;;;;;;5029649;28;20502;-61
2023/07/20 04:05:25;;;;;;;18.85;11.70;;;32.40;99.90;;;;;;5030728;28;20022;-63
2023/07/20 04:07:51;;;;;;;20.75;12.30;;;32.40;99.90;;;;;;5025494;28;20327;-61
2023/07/20 04:10:18;;;;;;;17.02;11.57;;;32.30;99.90;;;;;;5030152;28;20021;-59
2023/07/20 04:12:45;;;;;;;18.50;11.90;;;32.30;99.90;;;;;;5024741;28;20100;-60
2023/07/20 04:15:11;;;;;;;15.07;11.05;;;32.40;99.90;;;;;;5026685;28;20385;-62
2023/07/20 04:17:36;;;;;;;18.50;11.50;;;32.40;99.90;;;;;;5024382;28;20029;-63
2023/07/20 04:20:04;;;;;;;16.35;11.75;;;32.40;99.90;;;;;;5023451;28;20026;-65
2023/07/20 04:22:29;;;;;;;18.15;13.13;;;32.40;99.90;;;;;;5022474;28;20018;-64
2023/07/20 04:24:55;;;;;;;16.73;11.57;;;32.40;99.90;;;;;;5020046;28;20848;-64
2023/07/20 04:27:21;;;;;;;15.50;10.98;;;32.40;99.90;;;;;;5022608;28;20034;-63
2023/07/20 04:29:47;;;;;;;18.10;11.80;;;32.30;99.90;;;;;;5024046;28;20383;-63
2023/07/20 04:32:13;;;;;;;18.77;11.43;;;32.40;99.90;;;;;;5018332;28;20544;-63
2023/07/20 04:34:39;;;;;;;15.75;10.60;;;32.40;99.90;;;;;;5016093;28;20159;-64
2023/07/20 04:37:05;;;;;;;14.57;10.70;;;32.40;99.90;;;;;;5017663;28;20026;-64
2023/07/20 04:39:31;;;;;;;14.40;10.80;;;32.40;99.90;;;;;;5014287;28;20014;-63
2023/07/20 04:41:57;;;;;;;18.42;12.05;;;32.30;99.90;;;;;;5024783;28;20029;-62
2023/07/20 04:44:23;;;;;;;16.92;11.57;;;32.30;99.90;;;;;;5026401;28;20028;-62
2023/07/20 04:46:49;;;;;;;16.83;11.38;;;32.40;99.90;;;;;;5014966;28;20022;-61
2023/07/20 04:49:14;;;;;;;14.98;10.90;;;32.30;99.90;;;;;;5014639;28;20026;-63
2023/07/20 04:51:40;;;;;;;18.52;10.60;;;32.40;99.90;;;;;;5005722;28;20018;-62
2023/07/20 04:54:06;;;;;;;17.05;10.85;;;32.40;99.90;;;;;;5019985;28;20040;-60
2023/07/20 04:56:33;;;;;;;19.05;11.40;;;32.40;99.90;;;;;;5031576;28;20060;-60
2023/07/20 04:58:59;;;;;;;18.17;11.32;;;32.40;99.90;;;;;;5032362;28;20443;-59
2023/07/20 05:01:26;;;;;;;23.38;11.52;;;32.40;99.90;;;;;;5028633;28;20061;-64
2023/07/20 05:03:52;;;;;;;;;;;32.40;99.90;;;;;;5030379;28;20072;-64
2023/07/20 05:06:18;;;;;;;15.23;11.50;;;32.40;99.90;;;;;;5026805;28;19905;-63
2023/07/20 05:08:44;;;;;;;17.73;11.60;;;32.40;99.90;;;;;;5028818;28;20017;-62
2023/07/20 05:11:10;;;;;;;15.65;10.95;;;32.30;99.90;;;;;;5023623;28;20486;-63
2023/07/20 05:13:36;;;;;;;17.10;11.73;;;32.40;99.90;;;;;;5026336;28;20485;-64
2023/07/20 05:16:02;;;;;;;16.85;11.25;;;32.40;99.90;;;;;;5024725;28;20022;-63
2023/07/20 05:18:28;;;;;;;14.48;10.65;;;32.40;99.90;;;;;;5024136;28;20124;-63
2023/07/20 05:20:55;;;;;;;17.10;11.55;;;32.40;99.90;;;;;;5022428;28;20018;-62
2023/07/20 05:23:21;;;;;;;12.50;10.25;;;32.30;99.90;;;;;;5021694;28;20374;-62
2023/07/20 05:25:47;;;;;;;15.00;10.27;;;32.40;99.90;;;;;;5022265;28;20404;-63
2023/07/20 05:28:13;;;;;;;15.30;10.93;;;32.40;99.90;;;;;;5017379;28;20018;-62
2023/07/20 05:30:40;;;;;;;16.33;11.05;;;32.30;99.90;;;;;;5021953;28;20385;-62
2023/07/20 05:33:06;;;;;;;13.93;10.60;;;32.30;99.90;;;;;;5016851;28;20029;-63
2023/07/20 05:35:31;;;;;;;16.98;11.75;;;32.40;99.90;;;;;;5017853;28;20041;-60
2023/07/20 05:37:57;;;;;;;18.52;11.75;;;32.30;99.90;;;;;;5014868;28;20033;-63
2023/07/20 05:40:23;;;;;;;13.77;10.93;;;32.40;99.90;;;;;;5011435;28;20032;-63
2023/07/20 05:42:51;;;;;;;15.40;10.85;;;32.40;99.90;;;;;;5028010;28;20377;-62
2023/07/20 05:45:18;;;;;;;15.48;10.98;;;32.30;99.90;;;;;;5021819;28;20080;-62
2023/07/20 05:47:44;;;;;;;17.02;12.13;;;32.40;99.90;;;;;;5014089;28;20022;-64
2023/07/20 05:50:10;;;;;;;17.88;11.70;;;32.30;99.90;;;;;;5013150;28;20022;-65
2023/07/20 05:52:38;;;;;;;21.48;11.75;;;32.30;99.90;;;;;;5013257;28;20029;-66
2023/07/20 05:55:05;;;;;;;14.68;10.88;;;32.30;99.90;;;;;;5031435;28;20036;-65
2023/07/20 05:57:31;;;;;;;15.50;12.00;;;32.30;99.90;;;;;;5030453;28;20048;-65
2023/07/20 05:59:57;;;;;;;15.23;11.65;;;32.30;99.90;;;;;;5029511;28;20030;-66
2023/07/20 06:02:22;;;;;;;16.80;11.68;;;32.30;99.90;;;;;;5028979;28;20057;-67
2023/07/20 06:04:49;;;;;;;18.38;12.27;;;32.30;99.90;;;;;;5025937;28;20439;-66
2023/07/20 06:07:15;;;;;;;15.32;11.10;;;32.30;99.90;;;;;;5028714;28;20018;-67
2023/07/20 06:09:41;;;;;;;15.63;11.68;;;32.30;99.90;;;;;;5023190;28;20160;-66
2023/07/20 06:12:07;;;;;;;18.58;12.30;;;32.30;99.90;;;;;;5026679;28;20026;-66
2023/07/20 06:14:33;;;;;;;16.40;11.68;;;32.30;99.90;;;;;;5021105;28;20532;-62
2023/07/20 06:16:59;;;;;;;18.42;13.38;;;32.30;99.90;;;;;;5025043;28;20053;-62
2023/07/20 06:19:25;;;;;;;18.40;11.85;;;32.30;99.90;;;;;;5017807;28;20109;-63
2023/07/20 06:21:51;;;;;;;18.02;12.30;;;32.30;99.90;;;;;;5021457;28;20032;-63
2023/07/20 06:24:17;;;;;;;20.73;12.60;;;32.30;99.90;;;;;;5007781;28;20042;-61
2023/07/20 06:26:43;;;;;;;18.58;12.80;;;32.30;99.90;;;;;;5014286;28;20112;-62
2023/07/20 06:29:09;;;;;;;16.80;12.88;;;32.30;99.90;;;;;;5018163;28;20109;-62
2023/07/20 06:31:36;;;;;;;17.25;12.05;;;32.30;99.90;;;;;;5016397;28;20431;-63
2023/07/20 06:34:02;;;;;;;17.45;12.80;;;32.30;99.90;;;;;;5017956;28;20033;-63
2023/07/20 06:36:28;;;;;;;17.70;12.83;;;32.30;99.90;;;;;;5013541;28;20026;-63
2023/07/20 06:38:55;;;;;;;19.15;13.98;;;32.30;99.90;;;;;;5013399;28;20266;-63
2023/07/20 06:41:21;;;;;;;20.65;13.30;;;32.30;99.90;;;;;;5005684;28;20343;-61
2023/07/20 06:43:47;;;;;;;20.20;13.38;;;32.30;99.90;;;;;;5028751;28;20055;-63
2023/07/20 06:46:13;;;;;;;18.15;12.88;;;32.30;99.90;;;;;;5001540;28;20022;-58
2023/07/20 06:48:39;;;;;;;22.02;12.98;;;32.30;99.90;;;;;;5012174;28;20533;-61
2023/07/20 06:51:05;;;;;;;20.67;12.60;;;32.30;99.90;;;;;;5026899;28;20030;-60
2023/07/20 06:53:31;;;;;;;18.75;13.07;;;32.30;99.90;;;;;;5019706;28;20032;-60
2023/07/20 06:55:57;;;;;;;18.33;12.77;;;32.30;99.90;;;;;;5027946;28;20056;-60
2023/07/20 06:58:24;;;;;;;14.63;11.90;;;32.30;99.90;;;;;;5029514;28;20124;-60
2023/07/20 07:00:49;;;;;;;19.13;12.27;;;32.30;99.90;;;;;;5027154;28;20068;-63
2023/07/20 07:03:16;;;;;;;19.13;12.07;;;32.30;99.90;;;;;;5025720;28;20437;-63
2023/07/20 07:05:41;;;;;;;15.05;12.00;;;32.30;99.90;;;;;;5027428;28;20354;-62
2023/07/20 07:08:07;;;;;;;19.92;13.63;;;32.30;99.90;;;;;;5023452;28;20022;-63
2023/07/20 07:10:35;;;;;;;18.98;13.25;;;32.30;99.90;;;;;;5025261;28;20109;-65
2023/07/20 07:13:01;;;;;;;18.70;12.85;;;32.30;99.90;;;;;;5019740;28;20508;-62
2023/07/20 07:15:27;;;;;;;18.58;13.05;;;32.30;99.90;;;;;;5025061;28;20022;-63
2023/07/20 07:17:53;;;;;;;18.73;12.70;;;32.30;99.90;;;;;;5017673;28;20041;-62
2023/07/20 07:20:19;;;;;;;20.58;13.02;;;32.30;99.90;;;;;;5021530;28;20022;-62
2023/07/20 07:22:46;;;;;;;17.17;12.98;;;32.30;99.90;;;;;;5015650;28;20473;-61
2023/07/20 07:25:12;;;;;;;16.48;12.88;;;32.40;99.90;;;;;;5017249;28;20017;-61
2023/07/20 07:27:38;;;;;;;23.23;12.75;;;32.40;99.90;;;;;;5013164;28;20120;-62
2023/07/20 07:30:05;;;;;;;18.70;11.98;;;32.30;99.90;;;;;;5013595;28;20030;-61
2023/07/20 07:32:31;;;;;;;19.93;12.17;;;32.40;99.90;;;;;;5015578;28;20034;-62
2023/07/20 07:34:58;;;;;;;15.70;12.52;;;32.40;99.90;;;;;;5015300;28;20247;-62
2023/07/20 07:37:24;;;;;;;18.70;12.52;;;32.40;99.90;;;;;;5016932;28;20034;-61
2023/07/20 07:39:50;;;;;;;18.27;12.57;;;32.40;99.90;;;;;;5013776;28;20104;-58
2023/07/20 07:42:15;;;;;;;17.45;11.68;;;32.40;99.90;;;;;;5026530;28;20431;-61
2023/07/20 07:44:41;;;;;;;17.42;12.18;;;32.40;99.90;;;;;;5028452;28;20076;-61
2023/07/20 07:47:07;;;;;;;19.20;12.50;;;32.40;99.90;;;;;;5016009;28;20058;-61
2023/07/20 07:49:33;;;;;;;17.83;13.10;;;32.40;99.90;;;;;;5015595;28;20048;-60
2023/07/20 07:52:01;;;;;;;17.50;12.25;;;32.40;99.90;;;;;;5014854;28;20478;-64
2023/07/20 07:54:28;;;;;;;17.27;12.52;;;32.40;99.90;;;;;;5028918;28;20072;-63
2023/07/20 07:56:54;;;;;;;16.23;12.43;;;32.40;99.90;;;;;;5032949;28;20103;-63
2023/07/20 07:59:20;;;;;;;15.90;11.25;;;32.40;99.90;;;;;;5031121;28;20545;-60
2023/07/20 08:01:45;;;;;;;17.33;11.77;;;32.30;99.90;;;;;;5031733;28;20049;-61
2023/07/20 08:04:11;;;;;;;17.15;12.13;;;32.40;99.90;;;;;;5029788;28;20030;-61
2023/07/20 08:06:37;;;;;;;19.75;12.38;;;32.30;99.90;;;;;;5029172;28;20018;-62
2023/07/20 08:09:03;;;;;;;18.35;12.45;;;32.40;99.90;;;;;;5029383;28;20060;-61
2023/07/20 08:11:30;;;;;;;18.10;12.27;;;32.40;99.90;;;;;;5024630;28;20029;-61
2023/07/20 08:13:56;;;;;;;15.75;11.80;;;32.40;99.90;;;;;;5028663;28;20021;-62
2023/07/20 08:16:22;;;;;;;21.30;13.48;;;32.40;99.90;;;;;;5022926;28;20105;-62
2023/07/20 08:18:48;;;;;;;14.25;10.88;;;32.40;99.90;;;;;;5027334;28;20102;-60
2023/07/20 08:21:14;;;;;;;16.52;12.63;;;32.30;99.90;;;;;;5020589;28;20075;-62
2023/07/20 08:23:40;;;;;;;18.05;12.15;;;32.30;99.90;;;;;;5025464;28;20041;-62
2023/07/20 08:26:06;;;;;;;15.02;12.10;;;32.40;99.90;;;;;;5020239;28;20029;-61
2023/07/20 08:28:32;;;;;;;18.25;12.60;;;32.40;99.90;;;;;;5020991;28;20347;-62
2023/07/20 08:30:58;;;;;;;17.40;12.82;;;32.40;99.90;;;;;;5020405;28;20340;-62
2023/07/20 08:33:24;;;;;;;15.60;11.85;;;32.30;99.90;;;;;;5018233;28;20029;-60
2023/07/20 08:35:50;;;;;;;19.30;11.97;;;32.40;99.90;;;;;;5018347;28;20493;-63
2023/07/20 08:38:15;;;;;;;18.85;12.80;;;32.40;99.90;;;;;;5016146;28;20037;-62
2023/07/20 08:40:46;;;;;;;18.90;13.05;;;32.40;99.90;;;;;;5029572;28;20033;-60
2023/07/20 08:43:13;;;;;;;17.67;11.77;;;32.40;99.90;;;;;;5030522;28;20025;-62
2023/07/20 08:45:41;;;;;;;18.65;12.25;;;32.40;99.90;;;;;;5020034;28;20026;-62
2023/07/20 08:48:08;;;;;;;19.35;12.70;;;32.40;99.90;;;;;;5015649;28;20014;-61
2023/07/20 08:50:34;;;;;;;17.45;12.10;;;32.40;99.90;;;;;;5014156;28;20026;-61
2023/07/20 08:53:01;;;;;;;17.25;11.93;;;32.40;99.90;;;;;;5017606;28;20160;-62
2023/07/20 08:55:27;;;;;;;17.38;11.90;;;32.40;99.90;;;;;;5032232;28;20025;-62
2023/07/20 08:57:55;;;;;;;19.07;11.90;;;32.40;99.90;;;;;;5030539;28;20034;-61
2023/07/20 09:00:22;;;;;;;18.40;11.70;;;32.40;99.90;;;;;;5031290;28;20611;-60
2023/07/20 09:02:50;;;;;;;;;;;32.40;99.90;;;;;;5027500;28;20121;-62
2023/07/20 09:05:16;;;;;;;17.65;12.35;;;32.40;99.90;;;;;;5029650;28;20357;-55
2023/07/20 09:07:42;;;;;;;16.08;11.25;;;32.40;99.90;;;;;;5026848;28;20046;-62
2023/07/20 09:10:08;;;;;;;18.17;11.50;;;32.40;99.90;;;;;;5027133;28;20057;-62
2023/07/20 09:12:42;;;;;;;19.27;11.63;;;32.40;99.90;;;;;;5024559;28;20076;-62
2023/07/20 09:15:09;;;;;;;18.58;12.07;;;32.40;99.90;;;;;;5025871;28;20037;-61
2023/07/20 09:17:35;;;;;;;15.40;11.18;;;32.40;99.90;;;;;;5023366;28;20056;-60
2023/07/20 09:20:08;;;;;;;20.25;11.90;;;32.40;99.90;;;;;;5021662;28;20029;-62
2023/07/20 09:22:34;;;;;;;23.67;12.05;;;32.40;99.90;;;;;;5022308;28;20545;-62
2023/07/20 09:25:00;;;;;;;19.33;10.43;;;32.50;99.90;;;;;;5026865;28;20026;-62
2023/07/20 09:27:38;;;;;;;18.55;11.35;;;32.50;99.90;;;;;;5010658;28;20068;-62
2023/07/20 09:30:09;;;;;;;20.08;12.27;;;32.40;99.90;;;;;;5018474;28;20022;-62
2023/07/20 09:32:43;;;;;;;17.15;11.13;;;32.50;99.90;;;;;;5018645;28;20022;-62
2023/07/20 09:35:19;;;;;;;18.08;11.88;;;32.40;99.90;;;;;;5016250;28;20018;-62
2023/07/20 09:37:54;;;;;;;16.50;12.18;;;32.40;99.90;;;;;;5003477;28;20434;-62
2023/07/20 09:40:21;;;;;;;18.45;11.68;;;32.40;99.90;;;;;;5012987;28;20026;-63
2023/07/20 09:42:48;;;;;;;18.20;12.57;;;32.40;99.90;;;;;;5027977;28;20025;-62
2023/07/20 09:45:14;;;;;;;19.52;12.40;;;32.50;99.90;;;;;;5022549;28;20026;-60
2023/07/20 09:47:40;;;;;;;18.70;12.68;;;32.50;99.90;;;;;;5014392;28;20026;-62
2023/07/20 09:50:10;;;;;;;17.33;12.17;;;32.50;99.90;;;;;;5012866;28;20029;-61
2023/07/20 09:52:45;;;;;;;19.58;13.40;;;32.50;99.90;;;;;;5013034;28;20065;-61
2023/07/20 09:55:12;;;;;;;21.63;12.02;;;32.50;99.90;;;;;;5030950;28;20021;-62
2023/07/20 09:57:39;;;;;;;20.70;13.10;;;32.50;99.90;;;;;;5029325;28;20034;-63
2023/07/20 10:00:13;;;;;;;19.67;12.00;;;32.50;99.90;;;;;;5030307;28;20103;-61
2023/07/20 10:02:45;;;;;;;18.38;12.90;;;32.50;99.90;;;;;;5026174;28;20054;-64
2023/07/20 10:05:13;;;;;;;19.55;13.63;;;32.50;99.90;;;;;;5018317;28;20030;-62
2023/07/20 10:07:50;;;;;;;22.33;12.52;;;32.50;99.90;;;;;;5025921;28;20108;-62
2023/07/20 10:10:18;;;;;;;23.33;12.85;;;32.60;99.90;;;;;;5009347;28;20030;-60
2023/07/20 10:12:49;;;;;;;19.33;13.35;;;32.60;99.90;;;;;;5022564;28;20061;-61
2023/07/20 10:15:34;;;;;;;19.75;13.27;;;32.50;99.90;;;;;;5019611;28;20021;-61
2023/07/20 10:18:08;;;;;;;23.90;13.48;;;32.50;99.90;;;;;;5019471;28;20033;-62
2023/07/20 10:20:36;;;;;;;21.85;13.38;;;32.60;99.90;;;;;;5012375;28;20032;-62
2023/07/20 10:23:03;;;;;;;20.23;13.68;;;32.50;99.90;;;;;;5017534;28;20482;-62
2023/07/20 10:25:30;;;;;;;22.17;14.35;;;32.60;99.90;;;;;;5021339;28;20037;-63
2023/07/20 10:27:58;;;;;;;23.75;13.93;;;32.50;99.90;;;;;;5015556;28;20061;-61
2023/07/20 10:30:25;;;;;;;24.25;12.98;;;32.50;99.90;;;;;;5019053;28;20104;-65
2023/07/20 10:32:52;;;;;;;21.17;13.98;;;32.60;99.90;;;;;;5014941;28;20077;-62
2023/07/20 10:35:18;;;;;;;17.98;13.68;;;32.60;99.90;;;;;;5015422;28;20390;-62
2023/07/20 10:37:52;;;;;;;19.77;13.77;;;32.60;99.90;;;;;;5013494;28;20417;-62
2023/07/20 10:40:37;;;;;;;22.42;15.57;;;32.60;99.90;;;;;;5011685;28;20034;-62
2023/07/20 10:43:11;;;;;;;20.52;13.30;;;32.60;99.90;;;;;;5006319;28;20072;-63
2023/07/20 10:45:53;;;;;;;21.80;14.45;;;32.60;99.90;;;;;;4997217;28;20434;-62
2023/07/20 10:48:23;;;;;;;27.02;15.60;;;32.60;99.90;;;;;;5000170;28;20025;-60
2023/07/20 10:51:20;;;;;;;21.95;14.70;;;32.60;99.90;;;;;;5012071;28;20021;-61
2023/07/20 10:53:49;;;;;;;17.63;13.80;;;32.60;99.90;;;;;;5011832;28;20031;-61
2023/07/20 10:56:22;;;;;;;19.48;14.07;;;32.60;99.90;;;;;;5028455;28;20080;-63
2023/07/20 10:58:48;;;;;;;23.23;13.95;;;32.60;99.90;;;;;;5029665;28;20040;-64
2023/07/20 11:01:17;;;;;;;22.10;14.40;;;32.60;99.90;;;;;;5026158;28;20038;-63
2023/07/20 11:03:52;;;;;;;21.67;13.38;;;32.60;99.90;;;;;;5027743;28;20029;-61
2023/07/20 11:06:26;;;;;;;18.25;13.27;;;32.70;99.90;;;;;;5023139;28;20021;-62
2023/07/20 11:09:05;;;;;;;18.25;13.45;;;32.70;99.90;;;;;;5026872;28;20030;-63
2023/07/20 11:11:36;;;;;;;20.23;13.73;;;32.70;99.90;;;;;;5017418;28;20057;-63
2023/07/20 11:14:10;;;;;;;22.08;12.32;;;32.70;99.90;;;;;;5024672;28;20138;-63
2023/07/20 11:16:39;;;;;;;18.88;12.63;;;32.70;99.90;;;;;;5030389;28;20022;-62
2023/07/20 11:19:06;;;;;;;24.23;14.43;;;32.70;99.90;;;;;;5021363;28;20470;-62
2023/07/20 11:21:38;;;;;;;24.55;14.10;;;32.70;99.90;;;;;;5018241;28;20081;-62
2023/07/20 11:24:07;;;;;;;19.30;13.38;;;32.70;99.90;;;;;;5021387;28;20037;-62
2023/07/20 11:26:50;;;;;;;21.00;12.30;;;32.70;99.90;;;;;;5016208;28;20026;-63
2023/07/20 11:29:21;;;;;;;19.15;13.82;;;32.70;99.90;;;;;;5016892;28;20052;-63
2023/07/20 11:31:47;;;;;;;20.48;12.82;;;32.70;99.90;;;;;;5016679;28;20014;-62
2023/07/20 11:34:19;;;;;;;20.83;13.63;;;32.70;99.90;;;;;;5016199;28;20447;-62
2023/07/20 11:36:50;;;;;;;18.05;12.35;;;32.70;99.90;;;;;;5013011;28;20026;-62
2023/07/20 11:39:21;;;;;;;18.00;12.82;;;32.80;99.90;;;;;;5012261;28;20096;-62
2023/07/20 11:41:51;;;;;;;17.38;11.88;;;32.80;99.90;;;;;;5020544;28;20029;-63
2023/07/20 11:44:17;;;;;;;21.08;12.98;;;32.80;99.90;;;;;;5025896;28;20014;-62
2023/07/20 11:46:44;;;;;;;19.13;12.30;;;32.80;99.90;;;;;;5012516;28;20030;-62
2023/07/20 11:49:10;;;;;;;19.33;13.60;;;32.80;99.90;;;;;;5011896;28;20814;-62
2023/07/20 11:51:37;;;;;;;17.13;11.93;;;32.80;99.90;;;;;;5010874;28;20034;-62
2023/07/20 11:54:03;;;;;;;;;;;32.90;99.90;;;;;;5023883;28;20036;-61
2023/07/20 11:56:30;;;;;;;17.47;11.50;;;32.80;99.90;;;;;;5027814;28;19981;-62
2023/07/20 11:59:00;;;;;;;19.33;12.70;;;32.80;99.90;;;;;;5029085;28;20394;-61
2023/07/20 12:01:31;;;;;;;19.85;12.73;;;32.80;99.90;;;;;;5025356;28;20393;-62
2023/07/20 12:03:58;;;;;;;18.17;12.20;;;32.90;99.90;;;;;;5027259;28;20032;-62
2023/07/20 12:06:25;;;;;;;18.40;11.73;;;32.80;99.90;;;;;;5023048;28;20042;-61
2023/07/20 12:08:56;;;;;;;15.98;11.90;;;32.80;99.90;;;;;;5026182;28;20024;-61
2023/07/20 12:11:38;;;;;;;19.83;13.02;;;32.90;99.90;;;;;;5015725;28;20121;-62
2023/07/20 12:14:08;;;;;;;18.38;11.88;;;32.90;99.90;;;;;;5022065;28;20377;-61
2023/07/20 12:16:36;;;;;;;19.48;13.43;;;32.90;99.90;;;;;;5019958;28;20060;-60
2023/07/20 12:19:10;;;;;;;18.83;12.70;;;32.90;99.90;;;;;;5024721;28;20018;-61
2023/07/20 12:21:39;;;;;;;16.88;12.38;;;32.90;99.90;;;;;;5021469;28;20070;-59
2023/07/20 12:24:06;;;;;;;18.33;13.30;;;32.90;99.90;;;;;;5023292;28;20071;-58
2023/07/20 12:26:33;;;;;;;21.93;13.17;;;32.90;99.90;;;;;;5019159;28;20123;-62
2023/07/20 12:28:59;;;;;;;21.92;14.95;;;32.90;99.90;;;;;;5021342;28;20426;-64
2023/07/20 12:31:26;;;;;;;22.48;14.80;;;32.90;99.90;;;;;;5018296;28;20034;-63